createdAt,value
2017-03-29T00:00:08.243Z,18.91
2017-03-29T00:00:48.911Z,18.91
2017-03-29T00:01:29.549Z,18.82
2017-03-29T00:02:10.250Z,18.84
2017-03-29T00:02:50.899Z,18.87
2017-03-29T00:03:31.544Z,18.94
2017-03-29T00:04:12.182Z,18.87
2017-03-29T00:04:52.842Z,18.91
2017-03-29T00:05:33.561Z,18.9
2017-03-29T00:06:14.243Z,18.87
2017-03-29T00:06:54.884Z,18.91
2017-03-29T00:07:35.537Z,18.84
2017-03-29T00:08:16.258Z,18.92
2017-03-29T00:08:56.894Z,18.9
2017-03-29T00:09:37.548Z,18.91
2017-03-29T00:10:18.186Z,18.9
2017-03-29T00:10:58.821Z,18.9
2017-03-29T00:11:39.474Z,18.97
2017-03-29T00:12:20.185Z,18.82
2017-03-29T00:13:00.849Z,18.86
2017-03-29T00:13:41.495Z,18.97
2017-03-29T00:14:22.240Z,18.84
2017-03-29T00:15:02.919Z,18.92
2017-03-29T00:15:43.552Z,18.84
2017-03-29T00:16:24.178Z,18.87
2017-03-29T00:17:04.896Z,18.86
2017-03-29T00:17:45.553Z,18.95
2017-03-29T00:18:26.185Z,18.86
2017-03-29T00:19:06.922Z,18.9
2017-03-29T00:19:47.572Z,18.82
2017-03-29T00:20:28.213Z,18.87
2017-03-29T00:21:08.894Z,18.86
2017-03-29T00:21:49.547Z,18.91
2017-03-29T00:22:30.207Z,18.84
2017-03-29T00:23:10.893Z,18.91
2017-03-29T00:23:51.583Z,18.87
2017-03-29T00:24:32.210Z,18.9
2017-03-29T00:25:12.921Z,18.86
2017-03-29T00:25:53.569Z,18.84
2017-03-29T00:26:34.192Z,18.9
2017-03-29T00:27:14.926Z,18.92
2017-03-29T00:27:55.582Z,18.82
2017-03-29T00:28:36.211Z,18.91
2017-03-29T00:29:16.871Z,18.9
2017-03-29T00:29:57.529Z,18.91
2017-03-29T00:30:38.199Z,18.82
2017-03-29T00:31:18.825Z,18.87
2017-03-29T00:31:59.537Z,18.83
2017-03-29T00:32:40.287Z,18.76
2017-03-29T00:33:20.919Z,18.77
2017-03-29T00:34:01.560Z,18.84
2017-03-29T00:34:42.199Z,18.82
2017-03-29T00:35:22.835Z,18.87
2017-03-29T00:36:03.562Z,18.86
2017-03-29T00:36:44.351Z,18.86
2017-03-29T00:37:24.992Z,18.94
2017-03-29T00:38:05.636Z,18.9
2017-03-29T00:38:46.277Z,18.8
2017-03-29T00:39:26.935Z,18.79
2017-03-29T00:40:07.572Z,18.9
2017-03-29T00:40:48.209Z,18.83
2017-03-29T00:41:28.907Z,18.9
2017-03-29T00:42:09.544Z,18.87
2017-03-29T00:42:50.186Z,18.77
2017-03-29T00:43:30.860Z,18.8
2017-03-29T00:44:11.489Z,18.84
2017-03-29T00:44:52.122Z,18.79
2017-03-29T00:45:32.759Z,18.84
2017-03-29T00:46:13.388Z,18.74
2017-03-29T00:46:54.093Z,18.79
2017-03-29T00:47:34.731Z,18.9
2017-03-29T00:48:15.369Z,18.8
2017-03-29T00:48:56.000Z,18.74
2017-03-29T00:49:36.644Z,18.87
2017-03-29T00:50:17.297Z,18.83
2017-03-29T00:50:57.931Z,18.83
2017-03-29T00:51:38.587Z,18.82
2017-03-29T00:52:19.266Z,18.84
2017-03-29T00:52:59.863Z,18.77
2017-03-29T00:53:40.559Z,18.77
2017-03-29T00:54:21.228Z,18.74
2017-03-29T00:55:01.895Z,18.82
2017-03-29T00:55:42.592Z,18.77
2017-03-29T00:56:23.256Z,18.79
2017-03-29T00:57:03.899Z,18.83
2017-03-29T00:57:44.556Z,18.83
2017-03-29T00:58:25.215Z,18.8
2017-03-29T00:59:05.862Z,18.83
2017-03-29T00:59:46.492Z,18.8
2017-03-29T01:00:27.123Z,18.83
2017-03-29T01:01:07.774Z,18.79
2017-03-29T01:01:48.404Z,18.87
2017-03-29T01:02:29.039Z,18.79
2017-03-29T01:03:09.689Z,18.77
2017-03-29T01:03:50.349Z,18.86
2017-03-29T01:04:30.998Z,18.83
2017-03-29T01:05:11.642Z,18.82
2017-03-29T01:05:52.246Z,18.87
2017-03-29T01:06:32.945Z,18.77
2017-03-29T01:07:13.599Z,18.77
2017-03-29T01:07:54.221Z,18.84
2017-03-29T01:08:34.920Z,18.83
2017-03-29T01:09:15.683Z,18.82
2017-03-29T01:09:56.340Z,18.79
2017-03-29T01:10:36.970Z,18.87
2017-03-29T01:11:17.596Z,18.72
2017-03-29T01:11:58.232Z,18.77
2017-03-29T01:12:38.928Z,18.83
2017-03-29T01:13:19.580Z,18.82
2017-03-29T01:14:00.208Z,18.82
2017-03-29T01:14:40.836Z,18.82
2017-03-29T01:15:21.547Z,18.72
2017-03-29T01:16:02.176Z,18.72
2017-03-29T01:16:42.821Z,18.77
2017-03-29T01:17:23.509Z,18.77
2017-03-29T01:18:04.135Z,18.8
2017-03-29T01:18:44.814Z,18.79
2017-03-29T01:19:25.451Z,18.76
2017-03-29T01:20:06.071Z,18.74
2017-03-29T01:20:46.695Z,18.77
2017-03-29T01:21:27.438Z,18.8
2017-03-29T01:22:08.087Z,18.8
2017-03-29T01:22:48.730Z,18.79
2017-03-29T01:23:29.445Z,18.79
2017-03-29T01:24:10.077Z,18.76
2017-03-29T01:24:50.715Z,18.72
2017-03-29T01:25:31.402Z,18.79
2017-03-29T01:26:12.126Z,18.77
2017-03-29T01:26:52.761Z,18.8
2017-03-29T01:27:33.451Z,18.8
2017-03-29T01:28:14.186Z,18.77
2017-03-29T01:28:54.869Z,18.8
2017-03-29T01:29:35.512Z,18.77
2017-03-29T01:30:16.219Z,18.76
2017-03-29T01:30:56.972Z,18.77
2017-03-29T01:31:37.746Z,18.8
2017-03-29T01:32:18.269Z,18.77
2017-03-29T01:32:58.947Z,18.77
2017-03-29T01:33:39.572Z,18.82
2017-03-29T01:34:20.207Z,18.74
2017-03-29T01:35:00.840Z,18.72
2017-03-29T01:35:41.587Z,18.76
2017-03-29T01:36:22.117Z,18.74
2017-03-29T01:37:02.843Z,18.79
2017-03-29T01:37:43.536Z,18.8
2017-03-29T01:38:24.183Z,18.77
2017-03-29T01:39:04.894Z,18.76
2017-03-29T01:39:45.624Z,18.77
2017-03-29T01:40:26.261Z,18.77
2017-03-29T01:41:06.913Z,18.77
2017-03-29T01:41:47.556Z,18.77
2017-03-29T01:42:28.189Z,18.73
2017-03-29T01:43:08.838Z,18.73
2017-03-29T01:43:49.487Z,18.82
2017-03-29T01:44:30.153Z,18.74
2017-03-29T01:45:10.804Z,18.79
2017-03-29T01:45:51.423Z,18.79
2017-03-29T01:46:32.053Z,18.79
2017-03-29T01:47:12.700Z,18.77
2017-03-29T01:47:53.356Z,18.82
2017-03-29T01:48:34.014Z,18.73
2017-03-29T01:49:14.611Z,18.76
2017-03-29T01:49:55.264Z,18.76
2017-03-29T01:50:35.952Z,18.74
2017-03-29T01:51:16.549Z,18.7
2017-03-29T01:51:57.197Z,18.77
2017-03-29T01:52:37.865Z,18.8
2017-03-29T01:53:18.509Z,18.79
2017-03-29T01:53:59.137Z,18.72
2017-03-29T01:54:39.828Z,18.77
2017-03-29T01:55:20.471Z,18.77
2017-03-29T01:56:01.115Z,18.76
2017-03-29T01:56:41.816Z,18.76
2017-03-29T01:57:22.439Z,18.68
2017-03-29T01:58:03.064Z,18.77
2017-03-29T01:58:43.771Z,18.7
2017-03-29T01:59:24.399Z,18.68
2017-03-29T02:00:05.014Z,18.76
2017-03-29T02:00:45.640Z,18.77
2017-03-29T02:01:26.266Z,18.77
2017-03-29T02:02:06.918Z,18.79
2017-03-29T02:02:47.644Z,18.77
2017-03-29T02:03:28.270Z,18.76
2017-03-29T02:04:08.902Z,18.72
2017-03-29T02:04:49.590Z,18.74
2017-03-29T02:05:30.219Z,18.74
2017-03-29T02:06:10.846Z,18.72
2017-03-29T02:06:51.522Z,18.74
2017-03-29T02:07:32.151Z,18.72
2017-03-29T02:08:12.829Z,18.74
2017-03-29T02:08:53.531Z,18.77
2017-03-29T02:09:34.248Z,18.67
2017-03-29T02:10:14.899Z,18.8
2017-03-29T02:10:55.581Z,18.74
2017-03-29T02:11:36.198Z,18.76
2017-03-29T02:12:16.832Z,18.65
2017-03-29T02:12:57.493Z,18.68
2017-03-29T02:13:38.133Z,18.67
2017-03-29T02:14:18.754Z,18.68
2017-03-29T02:14:59.410Z,18.74
2017-03-29T02:15:40.168Z,18.68
2017-03-29T02:16:20.787Z,18.67
2017-03-29T02:17:01.450Z,18.7
2017-03-29T02:17:42.100Z,18.68
2017-03-29T02:18:22.724Z,18.7
2017-03-29T02:19:03.366Z,18.73
2017-03-29T02:19:44.014Z,18.68
2017-03-29T02:20:24.639Z,18.62
2017-03-29T02:21:05.314Z,18.7
2017-03-29T02:21:45.936Z,18.68
2017-03-29T02:22:26.584Z,18.64
2017-03-29T02:23:07.251Z,18.64
2017-03-29T02:23:47.953Z,18.73
2017-03-29T02:24:28.617Z,18.77
2017-03-29T02:25:09.255Z,18.77
2017-03-29T02:25:49.999Z,18.68
2017-03-29T02:26:30.730Z,18.65
2017-03-29T02:27:11.358Z,18.67
2017-03-29T02:27:52.145Z,18.67
2017-03-29T02:28:32.766Z,18.7
2017-03-29T02:29:13.427Z,18.72
2017-03-29T02:29:54.056Z,18.62
2017-03-29T02:30:34.682Z,18.64
2017-03-29T02:31:15.311Z,18.7
2017-03-29T02:31:55.935Z,18.62
2017-03-29T02:32:36.571Z,18.68
2017-03-29T02:33:17.244Z,18.68
2017-03-29T02:33:57.883Z,18.7
2017-03-29T02:34:38.578Z,18.7
2017-03-29T02:35:19.251Z,18.68
2017-03-29T02:35:59.877Z,18.68
2017-03-29T02:36:40.585Z,18.68
2017-03-29T02:37:21.279Z,18.68
2017-03-29T02:38:01.908Z,18.7
2017-03-29T02:38:42.565Z,18.64
2017-03-29T02:39:23.186Z,18.68
2017-03-29T02:40:03.817Z,18.68
2017-03-29T02:40:44.479Z,18.65
2017-03-29T02:41:25.103Z,18.72
2017-03-29T02:42:05.728Z,18.67
2017-03-29T02:42:46.379Z,18.65
2017-03-29T02:43:27.019Z,18.62
2017-03-29T02:44:07.642Z,18.65
2017-03-29T02:44:48.301Z,18.67
2017-03-29T02:45:28.923Z,18.68
2017-03-29T02:46:09.550Z,18.65
2017-03-29T02:46:50.183Z,18.64
2017-03-29T02:47:30.899Z,18.67
2017-03-29T02:48:11.538Z,18.67
2017-03-29T02:48:52.256Z,18.59
2017-03-29T02:49:32.904Z,18.67
2017-03-29T02:50:13.577Z,18.67
2017-03-29T02:50:54.163Z,18.67
2017-03-29T02:51:34.784Z,18.7
2017-03-29T02:52:15.443Z,18.67
2017-03-29T02:52:56.066Z,18.62
2017-03-29T02:53:36.695Z,18.62
2017-03-29T02:54:17.322Z,18.72
2017-03-29T02:54:57.966Z,18.64
2017-03-29T02:55:38.686Z,18.7
2017-03-29T02:56:19.330Z,18.68
2017-03-29T02:56:59.983Z,18.67
2017-03-29T02:57:40.711Z,18.64
2017-03-29T02:58:21.386Z,18.65
2017-03-29T02:59:02.019Z,18.7
2017-03-29T02:59:42.647Z,18.72
2017-03-29T03:00:23.364Z,18.65
2017-03-29T03:01:03.994Z,18.65
2017-03-29T03:01:44.660Z,18.62
2017-03-29T03:02:25.307Z,18.7
2017-03-29T03:03:05.933Z,18.7
2017-03-29T03:03:46.605Z,18.65
2017-03-29T03:04:27.290Z,18.67
2017-03-29T03:05:07.912Z,18.61
2017-03-29T03:05:48.585Z,18.76
2017-03-29T03:06:29.290Z,18.67
2017-03-29T03:07:09.919Z,18.7
2017-03-29T03:07:50.551Z,18.68
2017-03-29T03:08:31.177Z,18.67
2017-03-29T03:09:11.805Z,18.67
2017-03-29T03:09:52.435Z,18.65
2017-03-29T03:10:33.093Z,18.7
2017-03-29T03:11:13.785Z,18.64
2017-03-29T03:11:54.405Z,18.67
2017-03-29T03:12:35.064Z,18.68
2017-03-29T03:13:15.771Z,18.65
2017-03-29T03:13:56.397Z,18.55
2017-03-29T03:14:37.076Z,18.67
2017-03-29T03:15:17.732Z,18.68
2017-03-29T03:15:58.363Z,18.67
2017-03-29T03:16:38.986Z,18.65
2017-03-29T03:17:19.603Z,18.59
2017-03-29T03:18:00.228Z,18.62
2017-03-29T03:18:40.895Z,18.65
2017-03-29T03:19:21.528Z,18.65
2017-03-29T03:20:02.152Z,18.62
2017-03-29T03:20:42.829Z,18.67
2017-03-29T03:21:23.459Z,18.64
2017-03-29T03:22:04.088Z,18.7
2017-03-29T03:22:44.730Z,18.68
2017-03-29T03:23:25.381Z,18.62
2017-03-29T03:24:06.003Z,18.62
2017-03-29T03:24:46.626Z,18.64
2017-03-29T03:25:27.274Z,18.62
2017-03-29T03:26:07.900Z,18.65
2017-03-29T03:26:48.543Z,18.65
2017-03-29T03:27:29.249Z,18.65
2017-03-29T03:28:09.884Z,18.64
2017-03-29T03:28:50.514Z,18.62
2017-03-29T03:29:31.142Z,18.59
2017-03-29T03:30:11.777Z,18.61
2017-03-29T03:30:52.425Z,18.65
2017-03-29T03:31:33.088Z,18.61
2017-03-29T03:32:13.714Z,18.67
2017-03-29T03:32:54.340Z,18.62
2017-03-29T03:33:34.998Z,18.62
2017-03-29T03:34:15.626Z,18.61
2017-03-29T03:34:56.254Z,18.64
2017-03-29T03:35:36.892Z,18.62
2017-03-29T03:36:17.563Z,18.59
2017-03-29T03:36:58.192Z,18.62
2017-03-29T03:37:38.808Z,18.61
2017-03-29T03:38:19.432Z,18.57
2017-03-29T03:39:00.105Z,18.67
2017-03-29T03:39:40.730Z,18.55
2017-03-29T03:40:21.369Z,18.61
2017-03-29T03:41:02.067Z,18.61
2017-03-29T03:41:42.694Z,18.58
2017-03-29T03:42:23.319Z,18.52
2017-03-29T03:43:03.970Z,18.68
2017-03-29T03:43:44.629Z,18.59
2017-03-29T03:44:25.249Z,18.65
2017-03-29T03:45:05.876Z,18.61
2017-03-29T03:45:46.502Z,18.59
2017-03-29T03:46:27.153Z,18.54
2017-03-29T03:47:07.779Z,18.61
2017-03-29T03:47:48.426Z,18.55
2017-03-29T03:48:29.066Z,18.55
2017-03-29T03:49:09.686Z,18.67
2017-03-29T03:49:50.312Z,18.67
2017-03-29T03:50:30.935Z,18.5
2017-03-29T03:51:11.596Z,18.59
2017-03-29T03:51:52.267Z,18.58
2017-03-29T03:52:32.907Z,18.54
2017-03-29T03:53:13.522Z,18.52
2017-03-29T03:53:54.211Z,18.64
2017-03-29T03:54:34.864Z,18.55
2017-03-29T03:55:15.545Z,18.54
2017-03-29T03:55:56.183Z,18.57
2017-03-29T03:56:36.806Z,18.49
2017-03-29T03:57:17.431Z,18.52
2017-03-29T03:57:58.744Z,18.64
2017-03-29T03:58:39.404Z,18.57
2017-03-29T03:59:20.036Z,18.59
2017-03-29T04:00:00.662Z,18.5
2017-03-29T04:00:41.292Z,18.55
2017-03-29T04:01:21.931Z,18.55
2017-03-29T04:02:02.555Z,18.52
2017-03-29T04:02:43.181Z,18.59
2017-03-29T04:03:23.818Z,18.49
2017-03-29T04:04:04.437Z,18.55
2017-03-29T04:04:45.059Z,18.49
2017-03-29T04:05:25.778Z,18.49
2017-03-29T04:06:06.415Z,18.59
2017-03-29T04:06:47.054Z,18.55
2017-03-29T04:07:27.774Z,18.55
2017-03-29T04:08:08.393Z,18.52
2017-03-29T04:08:49.024Z,18.55
2017-03-29T04:09:29.653Z,18.62
2017-03-29T04:10:10.291Z,18.55
2017-03-29T04:10:50.912Z,18.52
2017-03-29T04:11:31.573Z,18.49
2017-03-29T04:12:12.203Z,18.57
2017-03-29T04:12:52.826Z,18.55
2017-03-29T04:13:33.544Z,18.49
2017-03-29T04:14:14.288Z,18.58
2017-03-29T04:14:54.795Z,18.58
2017-03-29T04:15:35.491Z,18.52
2017-03-29T04:16:16.116Z,18.54
2017-03-29T04:16:56.770Z,18.59
2017-03-29T04:17:37.450Z,18.67
2017-03-29T04:18:18.086Z,18.49
2017-03-29T04:18:58.728Z,18.5
2017-03-29T04:19:39.458Z,18.55
2017-03-29T04:20:20.089Z,18.49
2017-03-29T04:21:00.712Z,18.61
2017-03-29T04:21:41.336Z,18.59
2017-03-29T04:22:21.962Z,18.61
2017-03-29T04:23:02.599Z,18.5
2017-03-29T04:23:43.295Z,18.52
2017-03-29T04:24:23.926Z,18.55
2017-03-29T04:25:04.552Z,18.57
2017-03-29T04:25:45.259Z,18.49
2017-03-29T04:26:25.892Z,18.62
2017-03-29T04:27:06.525Z,18.57
2017-03-29T04:27:47.219Z,18.57
2017-03-29T04:28:27.902Z,18.52
2017-03-29T04:29:08.531Z,18.54
2017-03-29T04:29:49.173Z,18.49
2017-03-29T04:30:29.907Z,18.52
2017-03-29T04:31:10.559Z,18.52
2017-03-29T04:31:51.171Z,18.55
2017-03-29T04:32:31.897Z,18.5
2017-03-29T04:33:12.524Z,18.5
2017-03-29T04:33:53.149Z,18.58
2017-03-29T04:34:33.893Z,18.55
2017-03-29T04:35:14.665Z,18.54
2017-03-29T04:35:55.290Z,18.55
2017-03-29T04:36:35.957Z,18.47
2017-03-29T04:37:16.696Z,18.58
2017-03-29T04:37:57.437Z,18.55
2017-03-29T04:38:38.065Z,18.52
2017-03-29T04:39:18.743Z,18.5
2017-03-29T04:39:59.446Z,18.5
2017-03-29T04:40:40.075Z,18.54
2017-03-29T04:41:20.730Z,18.52
2017-03-29T04:42:01.360Z,18.55
2017-03-29T04:42:41.985Z,18.54
2017-03-29T04:43:22.667Z,18.52
2017-03-29T04:44:03.885Z,18.52
2017-03-29T04:44:44.520Z,18.47
2017-03-29T04:45:25.167Z,18.61
2017-03-29T04:46:05.795Z,18.54
2017-03-29T04:46:46.422Z,18.55
2017-03-29T04:47:27.170Z,18.57
2017-03-29T04:48:07.794Z,18.5
2017-03-29T04:48:48.429Z,18.65
2017-03-29T04:49:29.090Z,18.57
2017-03-29T04:50:09.772Z,18.5
2017-03-29T04:50:50.400Z,18.52
2017-03-29T04:51:31.094Z,18.5
2017-03-29T04:52:11.781Z,18.62
2017-03-29T04:52:52.428Z,18.54
2017-03-29T04:53:33.066Z,18.54
2017-03-29T04:54:13.693Z,18.52
2017-03-29T04:54:54.323Z,18.5
2017-03-29T04:55:35.093Z,18.57
2017-03-29T04:56:15.747Z,18.52
2017-03-29T04:56:56.389Z,18.5
2017-03-29T04:57:37.060Z,18.61
2017-03-29T04:58:17.832Z,18.57
2017-03-29T04:58:58.467Z,18.54
2017-03-29T04:59:39.092Z,18.55
2017-03-29T05:00:19.752Z,18.49
2017-03-29T05:01:00.381Z,18.5
2017-03-29T05:01:41.003Z,18.54
2017-03-29T05:02:21.668Z,18.55
2017-03-29T05:03:02.266Z,18.5
2017-03-29T05:03:42.932Z,18.5
2017-03-29T05:04:23.599Z,18.49
2017-03-29T05:05:04.233Z,18.46
2017-03-29T05:05:44.857Z,18.52
2017-03-29T05:06:25.527Z,18.52
2017-03-29T05:07:06.156Z,18.47
2017-03-29T05:07:46.776Z,18.49
2017-03-29T05:08:27.439Z,18.46
2017-03-29T05:09:08.121Z,18.5
2017-03-29T05:09:48.762Z,18.49
2017-03-29T05:10:29.406Z,18.47
2017-03-29T05:11:10.063Z,18.49
2017-03-29T05:11:50.685Z,18.52
2017-03-29T05:12:31.313Z,18.52
2017-03-29T05:13:12.021Z,18.49
2017-03-29T05:13:52.635Z,18.43
2017-03-29T05:14:33.292Z,18.44
2017-03-29T05:15:14.056Z,18.47
2017-03-29T05:15:54.691Z,18.43
2017-03-29T05:16:35.393Z,18.62
2017-03-29T05:17:16.010Z,18.47
2017-03-29T05:17:56.662Z,18.52
2017-03-29T05:18:37.327Z,18.49
2017-03-29T05:19:17.953Z,18.62
2017-03-29T05:19:58.637Z,18.54
2017-03-29T05:20:39.263Z,18.5
2017-03-29T05:21:20.029Z,18.55
2017-03-29T05:22:00.797Z,18.49
2017-03-29T05:22:41.419Z,18.46
2017-03-29T05:23:22.155Z,18.64
2017-03-29T05:24:02.903Z,18.47
2017-03-29T05:24:43.645Z,18.55
2017-03-29T05:25:24.268Z,18.47
2017-03-29T05:26:04.892Z,18.49
2017-03-29T05:26:45.606Z,18.47
2017-03-29T05:27:26.232Z,18.47
2017-03-29T05:28:06.913Z,18.49
2017-03-29T05:28:47.558Z,18.47
2017-03-29T05:29:28.189Z,18.49
2017-03-29T05:30:08.830Z,18.42
2017-03-29T05:30:49.541Z,18.44
2017-03-29T05:31:30.212Z,18.47
2017-03-29T05:32:10.876Z,18.47
2017-03-29T05:32:51.502Z,18.5
2017-03-29T05:33:32.246Z,18.47
2017-03-29T05:34:12.916Z,18.52
2017-03-29T05:34:53.609Z,18.39
2017-03-29T05:35:34.352Z,18.44
2017-03-29T05:36:15.013Z,18.47
2017-03-29T05:36:55.641Z,18.47
2017-03-29T05:37:36.355Z,18.54
2017-03-29T05:38:17.005Z,18.47
2017-03-29T05:38:57.609Z,18.49
2017-03-29T05:39:38.301Z,18.54
2017-03-29T05:40:18.992Z,18.46
2017-03-29T05:40:59.657Z,18.5
2017-03-29T05:41:40.314Z,18.46
2017-03-29T05:42:20.939Z,18.43
2017-03-29T05:43:01.592Z,18.43
2017-03-29T05:43:42.210Z,18.44
2017-03-29T05:44:22.920Z,18.52
2017-03-29T05:45:03.545Z,18.4
2017-03-29T05:45:44.200Z,18.39
2017-03-29T05:46:24.925Z,18.43
2017-03-29T05:47:05.544Z,18.46
2017-03-29T05:47:46.165Z,18.44
2017-03-29T05:48:26.865Z,18.46
2017-03-29T05:49:07.565Z,18.44
2017-03-29T05:49:48.190Z,18.54
2017-03-29T05:50:28.814Z,18.46
2017-03-29T05:51:09.484Z,18.44
2017-03-29T05:51:50.123Z,18.42
2017-03-29T05:52:30.750Z,18.44
2017-03-29T05:53:11.416Z,18.46
2017-03-29T05:53:52.044Z,18.54
2017-03-29T05:54:32.668Z,18.37
2017-03-29T05:55:13.327Z,18.36
2017-03-29T05:55:53.955Z,18.5
2017-03-29T05:56:34.593Z,18.44
2017-03-29T05:57:15.230Z,18.39
2017-03-29T05:57:55.893Z,18.37
2017-03-29T05:58:36.544Z,18.44
2017-03-29T05:59:17.172Z,18.42
2017-03-29T05:59:57.803Z,18.37
2017-03-29T06:00:38.446Z,18.37
2017-03-29T06:01:19.074Z,18.52
2017-03-29T06:01:59.704Z,18.4
2017-03-29T06:02:40.327Z,18.37
2017-03-29T06:03:21.678Z,18.44
2017-03-29T06:04:02.308Z,18.4
2017-03-29T06:04:42.943Z,18.39
2017-03-29T06:05:23.558Z,18.44
2017-03-29T06:06:04.225Z,18.37
2017-03-29T06:06:44.849Z,18.42
2017-03-29T06:07:25.505Z,18.44
2017-03-29T06:08:06.187Z,18.36
2017-03-29T06:08:46.911Z,18.44
2017-03-29T06:09:27.575Z,18.42
2017-03-29T06:10:08.196Z,18.44
2017-03-29T06:10:48.818Z,18.39
2017-03-29T06:11:29.461Z,18.42
2017-03-29T06:12:10.178Z,18.44
2017-03-29T06:12:50.839Z,18.4
2017-03-29T06:13:31.473Z,18.43
2017-03-29T06:14:12.136Z,18.37
2017-03-29T06:14:52.758Z,18.5
2017-03-29T06:15:33.393Z,18.4
2017-03-29T06:16:14.026Z,18.44
2017-03-29T06:16:54.660Z,18.42
2017-03-29T06:17:35.363Z,18.47
2017-03-29T06:18:15.945Z,18.34
2017-03-29T06:18:56.570Z,18.44
2017-03-29T06:19:37.310Z,18.37
2017-03-29T06:20:17.830Z,18.43
2017-03-29T06:20:58.459Z,18.4
2017-03-29T06:21:39.090Z,18.39
2017-03-29T06:22:19.716Z,18.42
2017-03-29T06:23:00.456Z,18.42
2017-03-29T06:23:41.159Z,18.43
2017-03-29T06:24:21.837Z,18.42
2017-03-29T06:25:02.464Z,18.4
2017-03-29T06:25:43.162Z,18.37
2017-03-29T06:26:23.788Z,18.43
2017-03-29T06:27:04.462Z,18.5
2017-03-29T06:27:45.147Z,18.44
2017-03-29T06:28:25.777Z,18.44
2017-03-29T06:29:06.485Z,18.44
2017-03-29T06:29:47.159Z,18.4
2017-03-29T06:30:27.884Z,18.57
2017-03-29T06:31:08.475Z,18.4
2017-03-29T06:31:49.105Z,18.44
2017-03-29T06:32:29.739Z,18.43
2017-03-29T06:33:10.394Z,18.34
2017-03-29T06:33:51.110Z,18.46
2017-03-29T06:34:31.747Z,18.43
2017-03-29T06:35:12.380Z,18.52
2017-03-29T06:35:53.091Z,18.55
2017-03-29T06:36:33.729Z,18.55
2017-03-29T06:37:14.363Z,18.49
2017-03-29T06:37:54.998Z,18.43
2017-03-29T06:38:35.646Z,18.43
2017-03-29T06:39:16.268Z,18.46
2017-03-29T06:39:56.894Z,18.37
2017-03-29T06:40:37.515Z,18.46
2017-03-29T06:41:18.137Z,18.4
2017-03-29T06:41:58.766Z,18.4
2017-03-29T06:42:39.424Z,18.4
2017-03-29T06:43:20.083Z,18.42
2017-03-29T06:44:00.742Z,18.4
2017-03-29T06:44:41.368Z,18.47
2017-03-29T06:45:21.988Z,18.37
2017-03-29T06:46:02.613Z,18.37
2017-03-29T06:46:43.232Z,18.47
2017-03-29T06:47:23.862Z,18.49
2017-03-29T06:48:04.479Z,18.43
2017-03-29T06:48:45.221Z,18.47
2017-03-29T06:49:25.871Z,18.54
2017-03-29T06:50:06.500Z,18.4
2017-03-29T06:50:47.199Z,18.43
2017-03-29T06:51:27.802Z,18.37
2017-03-29T06:52:08.447Z,18.47
2017-03-29T06:52:49.080Z,18.39
2017-03-29T06:53:29.706Z,18.58
2017-03-29T06:54:10.391Z,18.46
2017-03-29T06:54:51.151Z,18.47
2017-03-29T06:55:31.803Z,18.46
2017-03-29T06:56:12.451Z,18.37
2017-03-29T06:56:53.087Z,18.4
2017-03-29T06:57:33.718Z,18.36
2017-03-29T06:58:14.336Z,18.42
2017-03-29T06:58:55.010Z,18.44
2017-03-29T06:59:35.669Z,18.4
2017-03-29T07:00:16.358Z,18.49
2017-03-29T07:00:57.051Z,18.4
2017-03-29T07:01:37.697Z,18.39
2017-03-29T07:02:18.335Z,18.44
2017-03-29T07:02:58.969Z,18.5
2017-03-29T07:03:39.612Z,18.46
2017-03-29T07:04:20.243Z,18.43
2017-03-29T07:05:00.905Z,18.39
2017-03-29T07:05:41.547Z,18.47
2017-03-29T07:06:22.159Z,18.47
2017-03-29T07:07:02.818Z,18.44
2017-03-29T07:07:43.490Z,18.42
2017-03-29T07:08:24.121Z,18.49
2017-03-29T07:09:04.755Z,18.43
2017-03-29T07:09:45.456Z,18.5
2017-03-29T07:10:26.088Z,18.44
2017-03-29T07:11:06.779Z,18.44
2017-03-29T07:11:47.415Z,18.4
2017-03-29T07:12:28.124Z,18.46
2017-03-29T07:13:08.738Z,18.43
2017-03-29T07:13:49.460Z,18.4
2017-03-29T07:14:30.086Z,18.37
2017-03-29T07:15:10.713Z,18.43
2017-03-29T07:15:51.382Z,18.39
2017-03-29T07:16:32.007Z,18.46
2017-03-29T07:17:12.638Z,18.36
2017-03-29T07:17:53.319Z,18.43
2017-03-29T07:18:33.976Z,18.39
2017-03-29T07:19:14.602Z,18.43
2017-03-29T07:19:55.262Z,18.39
2017-03-29T07:20:35.906Z,18.43
2017-03-29T07:21:16.512Z,18.4
2017-03-29T07:21:57.140Z,18.43
2017-03-29T07:22:37.769Z,18.44
2017-03-29T07:23:18.413Z,18.39
2017-03-29T07:23:59.074Z,18.47
2017-03-29T07:24:39.709Z,18.4
2017-03-29T07:25:20.339Z,18.4
2017-03-29T07:26:00.971Z,18.44
2017-03-29T07:26:41.624Z,18.49
2017-03-29T07:27:22.248Z,18.4
2017-03-29T07:28:02.898Z,18.37
2017-03-29T07:28:43.571Z,18.49
2017-03-29T07:29:24.212Z,18.47
2017-03-29T07:30:04.837Z,18.44
2017-03-29T07:30:45.552Z,18.39
2017-03-29T07:31:26.186Z,18.4
2017-03-29T07:32:06.880Z,18.44
2017-03-29T07:32:47.558Z,18.46
2017-03-29T07:33:28.180Z,18.42
2017-03-29T07:34:08.890Z,18.42
2017-03-29T07:34:49.527Z,18.37
2017-03-29T07:35:30.192Z,18.44
2017-03-29T07:36:10.823Z,18.47
2017-03-29T07:36:51.477Z,18.36
2017-03-29T07:37:32.077Z,18.43
2017-03-29T07:38:12.742Z,18.47
2017-03-29T07:38:53.364Z,18.44
2017-03-29T07:39:33.994Z,18.4
2017-03-29T07:40:14.621Z,18.36
2017-03-29T07:40:55.333Z,18.4
2017-03-29T07:41:35.956Z,18.46
2017-03-29T07:42:16.615Z,18.47
2017-03-29T07:42:57.952Z,18.47
2017-03-29T07:43:38.582Z,18.43
2017-03-29T07:44:19.205Z,18.43
2017-03-29T07:44:59.825Z,18.49
2017-03-29T07:45:40.465Z,18.46
2017-03-29T07:46:21.104Z,18.44
2017-03-29T07:47:01.744Z,18.39
2017-03-29T07:47:42.447Z,18.44
2017-03-29T07:48:23.101Z,18.39
2017-03-29T07:49:03.816Z,18.49
2017-03-29T07:49:44.439Z,18.37
2017-03-29T07:50:25.065Z,18.47
2017-03-29T07:51:05.792Z,18.47
2017-03-29T07:51:46.420Z,18.37
2017-03-29T07:52:27.045Z,18.4
2017-03-29T07:53:07.782Z,18.42
2017-03-29T07:53:48.409Z,18.43
2017-03-29T07:54:29.085Z,18.39
2017-03-29T07:55:09.798Z,18.47
2017-03-29T07:55:50.525Z,18.36
2017-03-29T07:56:31.165Z,18.37
2017-03-29T07:57:11.875Z,18.47
2017-03-29T07:57:52.527Z,18.37
2017-03-29T07:58:33.171Z,18.47
2017-03-29T07:59:13.771Z,18.46
2017-03-29T07:59:54.432Z,18.39
2017-03-29T08:00:35.051Z,18.42
2017-03-29T08:01:15.679Z,18.37
2017-03-29T08:01:56.340Z,18.42
2017-03-29T08:02:36.959Z,18.44
2017-03-29T08:03:17.585Z,18.43
2017-03-29T08:03:58.302Z,18.44
2017-03-29T08:04:38.930Z,18.44
2017-03-29T08:05:19.566Z,18.43
2017-03-29T08:06:00.209Z,18.44
2017-03-29T08:06:40.837Z,18.44
2017-03-29T08:07:21.471Z,18.43
2017-03-29T08:08:02.133Z,18.39
2017-03-29T08:08:42.762Z,18.43
2017-03-29T08:09:23.540Z,18.42
2017-03-29T08:10:04.161Z,18.44
2017-03-29T08:10:44.792Z,18.4
2017-03-29T08:11:25.421Z,18.47
2017-03-29T08:12:06.133Z,18.4
2017-03-29T08:12:46.837Z,18.39
2017-03-29T08:13:27.474Z,18.4
2017-03-29T08:14:08.162Z,18.43
2017-03-29T08:14:48.868Z,18.47
2017-03-29T08:15:29.506Z,18.36
2017-03-29T08:16:10.286Z,18.4
2017-03-29T08:16:50.928Z,18.4
2017-03-29T08:17:31.573Z,18.44
2017-03-29T08:18:12.192Z,18.42
2017-03-29T08:18:52.844Z,18.43
2017-03-29T08:19:33.486Z,18.57
2017-03-29T08:20:14.163Z,18.46
2017-03-29T08:20:54.841Z,18.34
2017-03-29T08:21:35.565Z,18.37
2017-03-29T08:22:16.190Z,18.47
2017-03-29T08:22:56.821Z,18.43
2017-03-29T08:23:37.528Z,18.36
2017-03-29T08:24:18.157Z,18.47
2017-03-29T08:24:58.811Z,18.47
2017-03-29T08:25:39.436Z,18.4
2017-03-29T08:26:20.068Z,18.52
2017-03-29T08:27:00.770Z,18.43
2017-03-29T08:27:41.411Z,18.46
2017-03-29T08:28:22.037Z,18.54
2017-03-29T08:29:02.741Z,18.39
2017-03-29T08:29:43.383Z,18.4
2017-03-29T08:30:24.019Z,18.4
2017-03-29T08:31:04.645Z,18.47
2017-03-29T08:31:45.282Z,18.43
2017-03-29T08:32:25.931Z,18.42
2017-03-29T08:33:06.612Z,18.47
2017-03-29T08:33:47.321Z,18.47
2017-03-29T08:34:27.973Z,18.37
2017-03-29T08:35:08.602Z,18.39
2017-03-29T08:35:49.219Z,18.37
2017-03-29T08:36:29.898Z,18.34
2017-03-29T08:37:10.524Z,18.27
2017-03-29T08:37:51.166Z,18.37
2017-03-29T08:38:31.800Z,18.31
2017-03-29T08:39:12.436Z,18.27
2017-03-29T08:39:53.107Z,18.37
2017-03-29T08:40:33.731Z,18.28
2017-03-29T08:41:14.357Z,18.29
2017-03-29T08:41:54.986Z,18.31
2017-03-29T08:42:35.677Z,18.37
2017-03-29T08:43:16.305Z,18.37
2017-03-29T08:43:56.935Z,18.4
2017-03-29T08:44:37.567Z,18.39
2017-03-29T08:45:18.194Z,18.47
2017-03-29T08:45:58.835Z,18.42